sensor_id;sensor_type;location;lat;lon;timestamp;P1;durP1;ratioP1;P2;durP2;ratioP2
33475;SDS011;19814;48.224;11.422;2023-06-01T00:01:40;5.93;;;3.55;;
33475;SDS011;19814;48.224;11.422;2023-06-01T00:04:06;7.32;;;4.15;;
33475;SDS011;19814;48.224;11.422;2023-06-01T00:06:32;8.15;;;4.55;;
33475;SDS011;19814;48.224;11.422;2023-06-01T00:08:59;7.13;;;4.07;;
33475;SDS011;19814;48.224;11.422;2023-06-01T00:11:25;7.85;;;3.97;;
33475;SDS011;19814;48.224;11.422;2023-06-01T00:13:51;9.10;;;4.07;;
33475;SDS011;19814;48.224;11.422;2023-06-01T00:16:17;6.43;;;3.95;;
33475;SDS011;19814;48.224;11.422;2023-06-01T00:18:43;6.88;;;4.15;;
33475;SDS011;19814;48.224;11.422;2023-06-01T00:21:09;6.82;;;4.10;;
33475;SDS011;19814;48.224;11.422;2023-06-01T00:23:34;8.02;;;4.18;;
33475;SDS011;19814;48.224;11.422;2023-06-01T00:26:01;14.00;;;4.43;;
33475;SDS011;19814;48.224;11.422;2023-06-01T00:28:26;8.00;;;4.18;;
33475;SDS011;19814;48.224;11.422;2023-06-01T00:30:52;9.38;;;4.45;;
33475;SDS011;19814;48.224;11.422;2023-06-01T00:33:21;7.60;;;3.50;;
33475;SDS011;19814;48.224;11.422;2023-06-01T00:35:47;10.85;;;4.43;;
33475;SDS011;19814;48.224;11.422;2023-06-01T00:38:12;7.88;;;3.88;;
33475;SDS011;19814;48.224;11.422;2023-06-01T00:40:38;7.20;;;3.78;;
33475;SDS011;19814;48.224;11.422;2023-06-01T00:43:04;7.75;;;3.88;;
33475;SDS011;19814;48.224;11.422;2023-06-01T00:45:29;8.90;;;4.38;;
33475;SDS011;19814;48.224;11.422;2023-06-01T00:47:55;7.22;;;3.92;;
33475;SDS011;19814;48.224;11.422;2023-06-01T00:50:21;7.85;;;4.35;;
33475;SDS011;19814;48.224;11.422;2023-06-01T00:52:48;7.80;;;3.85;;
33475;SDS011;19814;48.224;11.422;2023-06-01T00:55:15;8.52;;;4.40;;
33475;SDS011;19814;48.224;11.422;2023-06-01T00:57:42;8.93;;;4.10;;
33475;SDS011;19814;48.224;11.422;2023-06-01T01:00:08;6.90;;;4.25;;
33475;SDS011;19814;48.224;11.422;2023-06-01T01:02:36;8.93;;;4.13;;
33475;SDS011;19814;48.224;11.422;2023-06-01T01:05:04;10.02;;;4.25;;
33475;SDS011;19814;48.224;11.422;2023-06-01T01:17:48;7.90;;;4.57;;
33475;SDS011;19814;48.224;11.422;2023-06-01T01:20:22;7.07;;;4.10;;
33475;SDS011;19814;48.224;11.422;2023-06-01T01:25:35;8.00;;;4.22;;
33475;SDS011;19814;48.224;11.422;2023-06-01T01:30:49;6.45;;;3.83;;
33475;SDS011;19814;48.224;11.422;2023-06-01T01:33:18;8.55;;;4.90;;
33475;SDS011;19814;48.224;11.422;2023-06-01T01:35:45;8.30;;;4.53;;
33475;SDS011;19814;48.224;11.422;2023-06-01T01:38:12;6.57;;;3.78;;
33475;SDS011;19814;48.224;11.422;2023-06-01T01:40:37;6.80;;;4.15;;
33475;SDS011;19814;48.224;11.422;2023-06-01T01:43:03;7.43;;;4.25;;
33475;SDS011;19814;48.224;11.422;2023-06-01T01:45:28;6.70;;;3.75;;
33475;SDS011;19814;48.224;11.422;2023-06-01T01:50:26;9.10;;;4.88;;
33475;SDS011;19814;48.224;11.422;2023-06-01T01:52:57;7.95;;;4.15;;
33475;SDS011;19814;48.224;11.422;2023-06-01T01:55:24;8.10;;;3.83;;
33475;SDS011;19814;48.224;11.422;2023-06-01T01:57:51;8.10;;;4.47;;
33475;SDS011;19814;48.224;11.422;2023-06-01T02:00:19;7.80;;;4.35;;
33475;SDS011;19814;48.224;11.422;2023-06-01T02:02:45;7.07;;;4.20;;
33475;SDS011;19814;48.224;11.422;2023-06-01T02:05:11;9.00;;;4.38;;
33475;SDS011;19814;48.224;11.422;2023-06-01T02:07:36;8.75;;;4.10;;
33475;SDS011;19814;48.224;11.422;2023-06-01T02:10:02;8.77;;;4.10;;
33475;SDS011;19814;48.224;11.422;2023-06-01T02:12:28;7.15;;;3.97;;
33475;SDS011;19814;48.224;11.422;2023-06-01T02:14:53;7.57;;;4.38;;
33475;SDS011;19814;48.224;11.422;2023-06-01T02:17:19;11.50;;;3.90;;
33475;SDS011;19814;48.224;11.422;2023-06-01T02:19:46;7.22;;;4.40;;
33475;SDS011;19814;48.224;11.422;2023-06-01T02:22:12;7.35;;;4.20;;
33475;SDS011;19814;48.224;11.422;2023-06-01T02:24:38;8.18;;;4.38;;
33475;SDS011;19814;48.224;11.422;2023-06-01T02:27:04;8.90;;;4.78;;
33475;SDS011;19814;48.224;11.422;2023-06-01T02:29:30;8.23;;;4.45;;
33475;SDS011;19814;48.224;11.422;2023-06-01T02:31:56;8.95;;;4.85;;
33475;SDS011;19814;48.224;11.422;2023-06-01T02:34:21;7.25;;;4.30;;
33475;SDS011;19814;48.224;11.422;2023-06-01T02:36:47;9.02;;;4.53;;
33475;SDS011;19814;48.224;11.422;2023-06-01T02:39:13;9.32;;;4.10;;
33475;SDS011;19814;48.224;11.422;2023-06-01T02:41:39;8.00;;;4.55;;
33475;SDS011;19814;48.224;11.422;2023-06-01T02:44:05;7.93;;;4.78;;
33475;SDS011;19814;48.224;11.422;2023-06-01T02:46:30;10.23;;;4.28;;
33475;SDS011;19814;48.224;11.422;2023-06-01T02:48:56;9.10;;;5.03;;
33475;SDS011;19814;48.224;11.422;2023-06-01T02:51:21;11.30;;;4.60;;
33475;SDS011;19814;48.224;11.422;2023-06-01T02:53:47;11.00;;;4.55;;
33475;SDS011;19814;48.224;11.422;2023-06-01T02:56:12;8.70;;;4.85;;
33475;SDS011;19814;48.224;11.422;2023-06-01T02:58:38;7.38;;;4.43;;
33475;SDS011;19814;48.224;11.422;2023-06-01T03:01:04;10.30;;;4.65;;
33475;SDS011;19814;48.224;11.422;2023-06-01T03:03:30;8.75;;;5.25;;
33475;SDS011;19814;48.224;11.422;2023-06-01T03:05:55;8.65;;;4.00;;
33475;SDS011;19814;48.224;11.422;2023-06-01T03:08:22;12.23;;;4.38;;
33475;SDS011;19814;48.224;11.422;2023-06-01T03:10:49;9.40;;;5.15;;
33475;SDS011;19814;48.224;11.422;2023-06-01T03:13:15;9.20;;;4.35;;
33475;SDS011;19814;48.224;11.422;2023-06-01T03:15:41;10.30;;;5.10;;
33475;SDS011;19814;48.224;11.422;2023-06-01T03:18:06;8.43;;;4.15;;
33475;SDS011;19814;48.224;11.422;2023-06-01T03:20:33;8.18;;;4.97;;
33475;SDS011;19814;48.224;11.422;2023-06-01T03:22:59;11.93;;;4.45;;
33475;SDS011;19814;48.224;11.422;2023-06-01T03:25:25;10.80;;;4.60;;
33475;SDS011;19814;48.224;11.422;2023-06-01T03:27:51;8.45;;;4.50;;
33475;SDS011;19814;48.224;11.422;2023-06-01T03:30:16;11.13;;;5.32;;
33475;SDS011;19814;48.224;11.422;2023-06-01T03:32:43;7.35;;;4.20;;
33475;SDS011;19814;48.224;11.422;2023-06-01T03:35:10;7.90;;;5.13;;
33475;SDS011;19814;48.224;11.422;2023-06-01T03:37:37;8.07;;;4.63;;
33475;SDS011;19814;48.224;11.422;2023-06-01T03:40:03;11.85;;;5.18;;
33475;SDS011;19814;48.224;11.422;2023-06-01T03:42:35;9.32;;;4.88;;
33475;SDS011;19814;48.224;11.422;2023-06-01T03:45:05;11.93;;;5.53;;
33475;SDS011;19814;48.224;11.422;2023-06-01T03:47:31;9.60;;;5.20;;
33475;SDS011;19814;48.224;11.422;2023-06-01T03:49:57;10.43;;;5.05;;
33475;SDS011;19814;48.224;11.422;2023-06-01T03:52:24;11.55;;;5.15;;
33475;SDS011;19814;48.224;11.422;2023-06-01T03:54:50;6.47;;;4.20;;
33475;SDS011;19814;48.224;11.422;2023-06-01T03:57:16;12.27;;;4.50;;
33475;SDS011;19814;48.224;11.422;2023-06-01T03:59:41;9.43;;;4.70;;
33475;SDS011;19814;48.224;11.422;2023-06-01T04:02:07;7.50;;;4.38;;
33475;SDS011;19814;48.224;11.422;2023-06-01T04:04:35;8.73;;;4.75;;
33475;SDS011;19814;48.224;11.422;2023-06-01T04:07:01;8.73;;;4.43;;
33475;SDS011;19814;48.224;11.422;2023-06-01T04:09:28;9.73;;;5.05;;
33475;SDS011;19814;48.224;11.422;2023-06-01T04:11:54;9.00;;;5.45;;
33475;SDS011;19814;48.224;11.422;2023-06-01T04:14:20;11.45;;;5.35;;
33475;SDS011;19814;48.224;11.422;2023-06-01T04:16:46;11.25;;;5.57;;
33475;SDS011;19814;48.224;11.422;2023-06-01T04:19:11;9.15;;;5.07;;
33475;SDS011;19814;48.224;11.422;2023-06-01T04:21:37;8.90;;;5.10;;
33475;SDS011;19814;48.224;11.422;2023-06-01T04:24:02;9.55;;;5.18;;
33475;SDS011;19814;48.224;11.422;2023-06-01T04:26:28;8.98;;;5.05;;
33475;SDS011;19814;48.224;11.422;2023-06-01T04:28:56;11.05;;;4.97;;
33475;SDS011;19814;48.224;11.422;2023-06-01T04:31:25;9.25;;;5.05;;
33475;SDS011;19814;48.224;11.422;2023-06-01T04:33:51;11.32;;;4.65;;
33475;SDS011;19814;48.224;11.422;2023-06-01T04:36:21;9.30;;;5.50;;
33475;SDS011;19814;48.224;11.422;2023-06-01T04:38:48;8.40;;;4.38;;
33475;SDS011;19814;48.224;11.422;2023-06-01T04:43:46;11.63;;;4.93;;
33475;SDS011;19814;48.224;11.422;2023-06-01T04:46:19;9.85;;;4.85;;
33475;SDS011;19814;48.224;11.422;2023-06-01T04:48:48;9.65;;;5.40;;
33475;SDS011;19814;48.224;11.422;2023-06-01T04:51:14;8.45;;;5.03;;
33475;SDS011;19814;48.224;11.422;2023-06-01T04:53:47;11.32;;;5.78;;
33475;SDS011;19814;48.224;11.422;2023-06-01T04:56:24;7.95;;;4.60;;
33475;SDS011;19814;48.224;11.422;2023-06-01T04:58:52;8.73;;;5.47;;
33475;SDS011;19814;48.224;11.422;2023-06-01T05:01:23;10.02;;;5.60;;
33475;SDS011;19814;48.224;11.422;2023-06-01T05:03:50;8.43;;;5.20;;
33475;SDS011;19814;48.224;11.422;2023-06-01T05:06:17;12.15;;;5.63;;
33475;SDS011;19814;48.224;11.422;2023-06-01T05:08:44;9.40;;;5.25;;
33475;SDS011;19814;48.224;11.422;2023-06-01T05:11:10;8.15;;;5.10;;
33475;SDS011;19814;48.224;11.422;2023-06-01T05:13:36;7.78;;;5.28;;
33475;SDS011;19814;48.224;11.422;2023-06-01T05:16:03;9.43;;;5.63;;
33475;SDS011;19814;48.224;11.422;2023-06-01T05:18:30;8.35;;;5.28;;
33475;SDS011;19814;48.224;11.422;2023-06-01T05:20:56;12.88;;;5.32;;
33475;SDS011;19814;48.224;11.422;2023-06-01T05:23:23;9.98;;;5.00;;
33475;SDS011;19814;48.224;11.422;2023-06-01T05:25:49;10.88;;;5.60;;
33475;SDS011;19814;48.224;11.422;2023-06-01T05:28:15;9.32;;;5.18;;
33475;SDS011;19814;48.224;11.422;2023-06-01T05:30:41;8.48;;;4.70;;
33475;SDS011;19814;48.224;11.422;2023-06-01T05:33:06;8.43;;;4.53;;
33475;SDS011;19814;48.224;11.422;2023-06-01T05:35:32;6.93;;;4.00;;
33475;SDS011;19814;48.224;11.422;2023-06-01T05:37:57;8.15;;;4.03;;
33475;SDS011;19814;48.224;11.422;2023-06-01T05:40:23;7.32;;;3.88;;
33475;SDS011;19814;48.224;11.422;2023-06-01T05:42:48;9.23;;;3.50;;
33475;SDS011;19814;48.224;11.422;2023-06-01T05:45:14;7.22;;;3.90;;
33475;SDS011;19814;48.224;11.422;2023-06-01T05:47:39;6.72;;;3.72;;
33475;SDS011;19814;48.224;11.422;2023-06-01T05:50:05;6.88;;;3.20;;
33475;SDS011;19814;48.224;11.422;2023-06-01T05:52:31;7.75;;;3.97;;
33475;SDS011;19814;48.224;11.422;2023-06-01T05:54:57;7.45;;;3.63;;
33475;SDS011;19814;48.224;11.422;2023-06-01T05:57:22;7.45;;;3.60;;
33475;SDS011;19814;48.224;11.422;2023-06-01T05:59:48;8.88;;;3.25;;
33475;SDS011;19814;48.224;11.422;2023-06-01T06:02:13;12.73;;;3.25;;
33475;SDS011;19814;48.224;11.422;2023-06-01T06:04:39;7.75;;;3.78;;
33475;SDS011;19814;48.224;11.422;2023-06-01T06:07:05;7.32;;;3.63;;
33475;SDS011;19814;48.224;11.422;2023-06-01T06:09:31;8.52;;;3.58;;
33475;SDS011;19814;48.224;11.422;2023-06-01T06:11:57;8.90;;;3.65;;
33475;SDS011;19814;48.224;11.422;2023-06-01T06:14:23;16.67;;;3.92;;
33475;SDS011;19814;48.224;11.422;2023-06-01T06:16:48;9.57;;;3.50;;
33475;SDS011;19814;48.224;11.422;2023-06-01T06:19:14;9.07;;;3.25;;
33475;SDS011;19814;48.224;11.422;2023-06-01T06:21:43;6.07;;;3.35;;
33475;SDS011;19814;48.224;11.422;2023-06-01T06:24:08;7.93;;;4.07;;
33475;SDS011;19814;48.224;11.422;2023-06-01T06:26:34;8.55;;;3.80;;
33475;SDS011;19814;48.224;11.422;2023-06-01T06:29:00;8.80;;;3.95;;
33475;SDS011;19814;48.224;11.422;2023-06-01T06:31:25;7.40;;;3.72;;
33475;SDS011;19814;48.224;11.422;2023-06-01T06:33:51;8.00;;;3.60;;
33475;SDS011;19814;48.224;11.422;2023-06-01T06:36:17;9.63;;;4.20;;
33475;SDS011;19814;48.224;11.422;2023-06-01T06:38:43;8.77;;;4.20;;
33475;SDS011;19814;48.224;11.422;2023-06-01T06:41:09;7.40;;;4.28;;
33475;SDS011;19814;48.224;11.422;2023-06-01T06:43:35;8.73;;;3.70;;
33475;SDS011;19814;48.224;11.422;2023-06-01T06:46:00;9.15;;;3.83;;
33475;SDS011;19814;48.224;11.422;2023-06-01T06:48:27;7.78;;;4.00;;
33475;SDS011;19814;48.224;11.422;2023-06-01T06:50:52;8.73;;;3.67;;
33475;SDS011;19814;48.224;11.422;2023-06-01T06:53:18;6.00;;;3.38;;
33475;SDS011;19814;48.224;11.422;2023-06-01T06:55:43;8.13;;;3.30;;
33475;SDS011;19814;48.224;11.422;2023-06-01T06:58:09;6.43;;;3.90;;
33475;SDS011;19814;48.224;11.422;2023-06-01T07:00:35;8.60;;;3.63;;
33475;SDS011;19814;48.224;11.422;2023-06-01T07:03:01;9.40;;;4.28;;
33475;SDS011;19814;48.224;11.422;2023-06-01T07:05:28;8.00;;;3.75;;
33475;SDS011;19814;48.224;11.422;2023-06-01T07:07:54;8.65;;;4.10;;
33475;SDS011;19814;48.224;11.422;2023-06-01T07:10:19;6.95;;;3.95;;
33475;SDS011;19814;48.224;11.422;2023-06-01T07:12:45;6.93;;;4.20;;
33475;SDS011;19814;48.224;11.422;2023-06-01T07:15:11;11.23;;;4.10;;
33475;SDS011;19814;48.224;11.422;2023-06-01T07:17:36;7.22;;;3.90;;
33475;SDS011;19814;48.224;11.422;2023-06-01T07:20:02;7.38;;;4.00;;
33475;SDS011;19814;48.224;11.422;2023-06-01T07:22:34;8.27;;;3.93;;
33475;SDS011;19814;48.224;11.422;2023-06-01T07:25:00;7.15;;;3.92;;
33475;SDS011;19814;48.224;11.422;2023-06-01T07:27:25;7.15;;;3.90;;
33475;SDS011;19814;48.224;11.422;2023-06-01T07:29:51;8.25;;;4.20;;
33475;SDS011;19814;48.224;11.422;2023-06-01T07:32:20;9.50;;;3.72;;
33475;SDS011;19814;48.224;11.422;2023-06-01T07:34:49;6.18;;;3.50;;
33475;SDS011;19814;48.224;11.422;2023-06-01T07:37:15;7.72;;;3.65;;
33475;SDS011;19814;48.224;11.422;2023-06-01T07:39:41;10.55;;;3.83;;
33475;SDS011;19814;48.224;11.422;2023-06-01T07:42:06;5.72;;;3.67;;
33475;SDS011;19814;48.224;11.422;2023-06-01T07:44:32;7.95;;;3.47;;
33475;SDS011;19814;48.224;11.422;2023-06-01T07:46:58;6.47;;;3.10;;
33475;SDS011;19814;48.224;11.422;2023-06-01T07:49:23;5.68;;;3.20;;
33475;SDS011;19814;48.224;11.422;2023-06-01T07:51:49;7.63;;;3.55;;
33475;SDS011;19814;48.224;11.422;2023-06-01T07:54:16;6.20;;;3.72;;
33475;SDS011;19814;48.224;11.422;2023-06-01T07:56:42;6.60;;;3.42;;
33475;SDS011;19814;48.224;11.422;2023-06-01T07:59:08;7.75;;;4.18;;
33475;SDS011;19814;48.224;11.422;2023-06-01T08:01:34;10.45;;;4.03;;
33475;SDS011;19814;48.224;11.422;2023-06-01T08:03:59;6.20;;;3.45;;
33475;SDS011;19814;48.224;11.422;2023-06-01T08:06:26;6.68;;;3.50;;
33475;SDS011;19814;48.224;11.422;2023-06-01T08:08:52;5.97;;;3.83;;
33475;SDS011;19814;48.224;11.422;2023-06-01T08:11:18;5.68;;;3.30;;
33475;SDS011;19814;48.224;11.422;2023-06-01T08:13:44;8.30;;;3.40;;
33475;SDS011;19814;48.224;11.422;2023-06-01T08:16:11;8.38;;;3.63;;
33475;SDS011;19814;48.224;11.422;2023-06-01T08:18:40;12.63;;;3.40;;
33475;SDS011;19814;48.224;11.422;2023-06-01T08:21:05;5.75;;;3.22;;
33475;SDS011;19814;48.224;11.422;2023-06-01T08:23:33;8.27;;;3.90;;
33475;SDS011;19814;48.224;11.422;2023-06-01T08:25:59;7.10;;;3.83;;
33475;SDS011;19814;48.224;11.422;2023-06-01T08:28:27;7.72;;;3.60;;
33475;SDS011;19814;48.224;11.422;2023-06-01T08:30:53;8.20;;;4.20;;
33475;SDS011;19814;48.224;11.422;2023-06-01T08:33:18;6.05;;;3.47;;
33475;SDS011;19814;48.224;11.422;2023-06-01T08:35:44;8.52;;;3.92;;
33475;SDS011;19814;48.224;11.422;2023-06-01T08:38:10;5.50;;;3.33;;
33475;SDS011;19814;48.224;11.422;2023-06-01T08:40:35;7.13;;;3.63;;
33475;SDS011;19814;48.224;11.422;2023-06-01T08:43:17;6.70;;;3.97;;
33475;SDS011;19814;48.224;11.422;2023-06-01T08:45:45;8.10;;;3.90;;
33475;SDS011;19814;48.224;11.422;2023-06-01T08:48:15;6.20;;;3.45;;
33475;SDS011;19814;48.224;11.422;2023-06-01T08:50:42;6.65;;;3.92;;
33475;SDS011;19814;48.224;11.422;2023-06-01T08:53:18;7.47;;;3.67;;
33475;SDS011;19814;48.224;11.422;2023-06-01T08:55:50;8.93;;;3.75;;
33475;SDS011;19814;48.224;11.422;2023-06-01T09:00:48;7.25;;;4.05;;
33475;SDS011;19814;48.224;11.422;2023-06-01T09:03:19;6.22;;;3.85;;
33475;SDS011;19814;48.224;11.422;2023-06-01T09:05:45;6.80;;;3.67;;
33475;SDS011;19814;48.224;11.422;2023-06-01T09:08:10;6.57;;;4.07;;
33475;SDS011;19814;48.224;11.422;2023-06-01T09:10:37;5.78;;;3.67;;
33475;SDS011;19814;48.224;11.422;2023-06-01T09:13:02;6.43;;;4.28;;
33475;SDS011;19814;48.224;11.422;2023-06-01T09:15:28;6.53;;;4.35;;
33475;SDS011;19814;48.224;11.422;2023-06-01T09:18:04;5.72;;;3.78;;
33475;SDS011;19814;48.224;11.422;2023-06-01T09:20:31;6.03;;;3.40;;
33475;SDS011;19814;48.224;11.422;2023-06-01T09:22:57;7.70;;;3.70;;
33475;SDS011;19814;48.224;11.422;2023-06-01T09:25:23;7.57;;;3.67;;
33475;SDS011;19814;48.224;11.422;2023-06-01T09:27:52;6.90;;;4.30;;
33475;SDS011;19814;48.224;11.422;2023-06-01T09:30:20;6.10;;;3.30;;
33475;SDS011;19814;48.224;11.422;2023-06-01T09:36:04;6.55;;;3.40;;
33475;SDS011;19814;48.224;11.422;2023-06-01T09:38:11;5.82;;;3.67;;
33475;SDS011;19814;48.224;11.422;2023-06-01T09:40:55;6.78;;;3.30;;
33475;SDS011;19814;48.224;11.422;2023-06-01T09:43:22;11.27;;;3.60;;
33475;SDS011;19814;48.224;11.422;2023-06-01T09:46:04;14.73;;;3.90;;
33475;SDS011;19814;48.224;11.422;2023-06-01T09:48:33;6.82;;;3.10;;
33475;SDS011;19814;48.224;11.422;2023-06-01T09:50:59;5.78;;;3.63;;
33475;SDS011;19814;48.224;11.422;2023-06-01T09:53:25;6.38;;;3.10;;
33475;SDS011;19814;48.224;11.422;2023-06-01T09:55:58;6.65;;;3.20;;
33475;SDS011;19814;48.224;11.422;2023-06-01T09:58:25;5.47;;;3.13;;
33475;SDS011;19814;48.224;11.422;2023-06-01T10:00:51;7.82;;;3.70;;
33475;SDS011;19814;48.224;11.422;2023-06-01T10:03:18;6.00;;;3.13;;
33475;SDS011;19814;48.224;11.422;2023-06-01T10:05:46;6.13;;;3.45;;
33475;SDS011;19814;48.224;11.422;2023-06-01T10:08:13;7.95;;;3.25;;
33475;SDS011;19814;48.224;11.422;2023-06-01T10:10:42;5.90;;;3.53;;
33475;SDS011;19814;48.224;11.422;2023-06-01T10:13:10;5.88;;;3.25;;
33475;SDS011;19814;48.224;11.422;2023-06-01T10:15:36;10.90;;;3.33;;
33475;SDS011;19814;48.224;11.422;2023-06-01T10:18:05;8.27;;;3.83;;
33475;SDS011;19814;48.224;11.422;2023-06-01T10:20:32;5.15;;;3.20;;
33475;SDS011;19814;48.224;11.422;2023-06-01T10:23:02;6.55;;;3.88;;
33475;SDS011;19814;48.224;11.422;2023-06-01T10:25:30;6.70;;;4.25;;
33475;SDS011;19814;48.224;11.422;2023-06-01T10:28:01;5.38;;;3.53;;
33475;SDS011;19814;48.224;11.422;2023-06-01T10:30:29;6.05;;;3.63;;
33475;SDS011;19814;48.224;11.422;2023-06-01T10:32:54;5.85;;;3.25;;
33475;SDS011;19814;48.224;11.422;2023-06-01T10:40:36;5.35;;;3.45;;
33475;SDS011;19814;48.224;11.422;2023-06-01T10:43:02;5.53;;;3.47;;
33475;SDS011;19814;48.224;11.422;2023-06-01T10:48:04;5.53;;;3.47;;
33475;SDS011;19814;48.224;11.422;2023-06-01T10:50:32;5.53;;;3.42;;
33475;SDS011;19814;48.224;11.422;2023-06-01T10:58:45;6.70;;;3.30;;
33475;SDS011;19814;48.224;11.422;2023-06-01T11:01:18;5.38;;;3.65;;
33475;SDS011;19814;48.224;11.422;2023-06-01T11:03:45;6.70;;;3.95;;
33475;SDS011;19814;48.224;11.422;2023-06-01T11:06:28;7.93;;;3.58;;
33475;SDS011;19814;48.224;11.422;2023-06-01T11:08:56;7.40;;;3.90;;
33475;SDS011;19814;48.224;11.422;2023-06-01T11:14:20;5.50;;;3.60;;
33475;SDS011;19814;48.224;11.422;2023-06-01T11:16:51;5.65;;;3.45;;
33475;SDS011;19814;48.224;11.422;2023-06-01T11:19:23;5.40;;;3.25;;
33475;SDS011;19814;48.224;11.422;2023-06-01T11:21:59;5.50;;;3.30;;
33475;SDS011;19814;48.224;11.422;2023-06-01T11:24:34;6.68;;;3.28;;
33475;SDS011;19814;48.224;11.422;2023-06-01T11:27:05;6.95;;;3.10;;
33475;SDS011;19814;48.224;11.422;2023-06-01T11:29:32;5.88;;;3.63;;
33475;SDS011;19814;48.224;11.422;2023-06-01T11:31:58;6.07;;;3.40;;
33475;SDS011;19814;48.224;11.422;2023-06-01T11:34:32;6.15;;;3.40;;
33475;SDS011;19814;48.224;11.422;2023-06-01T11:36:59;6.97;;;3.78;;
33475;SDS011;19814;48.224;11.422;2023-06-01T11:39:27;6.80;;;3.20;;
33475;SDS011;19814;48.224;11.422;2023-06-01T11:42:09;6.25;;;4.07;;
33475;SDS011;19814;48.224;11.422;2023-06-01T11:44:37;5.75;;;3.55;;
33475;SDS011;19814;48.224;11.422;2023-06-01T11:47:05;7.72;;;3.63;;
33475;SDS011;19814;48.224;11.422;2023-06-01T11:49:41;6.00;;;3.80;;
33475;SDS011;19814;48.224;11.422;2023-06-01T11:52:13;5.97;;;3.92;;
33475;SDS011;19814;48.224;11.422;2023-06-01T11:54:39;6.78;;;3.90;;
33475;SDS011;19814;48.224;11.422;2023-06-01T11:57:05;5.32;;;3.78;;
33475;SDS011;19814;48.224;11.422;2023-06-01T11:59:37;5.32;;;3.65;;
33475;SDS011;19814;48.224;11.422;2023-06-01T12:02:15;5.93;;;3.72;;
33475;SDS011;19814;48.224;11.422;2023-06-01T12:05:01;8.10;;;3.85;;
33475;SDS011;19814;48.224;11.422;2023-06-01T12:07:31;6.70;;;4.15;;
33475;SDS011;19814;48.224;11.422;2023-06-01T12:10:08;7.03;;;3.95;;
33475;SDS011;19814;48.224;11.422;2023-06-01T12:12:35;7.72;;;3.90;;
33475;SDS011;19814;48.224;11.422;2023-06-01T12:15:02;7.40;;;4.00;;
33475;SDS011;19814;48.224;11.422;2023-06-01T12:17:45;18.27;;;4.90;;
33475;SDS011;19814;48.224;11.422;2023-06-01T12:20:30;7.63;;;3.47;;
33475;SDS011;19814;48.224;11.422;2023-06-01T12:22:57;5.85;;;3.60;;
33475;SDS011;19814;48.224;11.422;2023-06-01T12:25:24;5.32;;;3.38;;
33475;SDS011;19814;48.224;11.422;2023-06-01T12:30:46;6.10;;;4.20;;
33475;SDS011;19814;48.224;11.422;2023-06-01T12:33:31;7.10;;;3.70;;
33475;SDS011;19814;48.224;11.422;2023-06-01T12:35:58;8.13;;;4.15;;
33475;SDS011;19814;48.224;11.422;2023-06-01T12:38:24;6.75;;;3.85;;
33475;SDS011;19814;48.224;11.422;2023-06-01T12:41:10;8.13;;;3.90;;
33475;SDS011;19814;48.224;11.422;2023-06-01T12:43:43;7.18;;;3.65;;
33475;SDS011;19814;48.224;11.422;2023-06-01T12:46:19;7.10;;;4.00;;
33475;SDS011;19814;48.224;11.422;2023-06-01T12:49:10;6.70;;;3.20;;
33475;SDS011;19814;48.224;11.422;2023-06-01T12:51:36;6.57;;;3.55;;
33475;SDS011;19814;48.224;11.422;2023-06-01T12:54:02;5.75;;;3.67;;
33475;SDS011;19814;48.224;11.422;2023-06-01T12:56:28;5.18;;;3.20;;
33475;SDS011;19814;48.224;11.422;2023-06-01T12:58:54;7.75;;;4.03;;
33475;SDS011;19814;48.224;11.422;2023-06-01T13:01:20;5.43;;;3.35;;
33475;SDS011;19814;48.224;11.422;2023-06-01T13:03:46;7.28;;;3.92;;
33475;SDS011;19814;48.224;11.422;2023-06-01T13:06:11;6.65;;;3.13;;
33475;SDS011;19814;48.224;11.422;2023-06-01T13:08:37;5.03;;;3.17;;
33475;SDS011;19814;48.224;11.422;2023-06-01T13:11:03;6.57;;;3.50;;
33475;SDS011;19814;48.224;11.422;2023-06-01T13:13:29;5.43;;;3.20;;
33475;SDS011;19814;48.224;11.422;2023-06-01T13:15:54;7.68;;;3.30;;
33475;SDS011;19814;48.224;11.422;2023-06-01T13:18:20;5.68;;;3.58;;
33475;SDS011;19814;48.224;11.422;2023-06-01T13:20:46;6.63;;;3.40;;
33475;SDS011;19814;48.224;11.422;2023-06-01T13:23:12;7.75;;;3.92;;
33475;SDS011;19814;48.224;11.422;2023-06-01T13:25:38;6.93;;;3.50;;
33475;SDS011;19814;48.224;11.422;2023-06-01T13:28:04;6.30;;;3.17;;
33475;SDS011;19814;48.224;11.422;2023-06-01T13:30:31;7.03;;;3.40;;
33475;SDS011;19814;48.224;11.422;2023-06-01T13:32:58;6.22;;;3.42;;
33475;SDS011;19814;48.224;11.422;2023-06-01T13:35:25;6.03;;;3.60;;
33475;SDS011;19814;48.224;11.422;2023-06-01T13:37:50;6.18;;;3.50;;
33475;SDS011;19814;48.224;11.422;2023-06-01T13:40:16;5.95;;;3.00;;
33475;SDS011;19814;48.224;11.422;2023-06-01T13:42:48;6.18;;;3.45;;
33475;SDS011;19814;48.224;11.422;2023-06-01T13:45:15;8.13;;;3.72;;
33475;SDS011;19814;48.224;11.422;2023-06-01T13:47:41;5.70;;;3.38;;
33475;SDS011;19814;48.224;11.422;2023-06-01T13:50:06;5.28;;;3.35;;
33475;SDS011;19814;48.224;11.422;2023-06-01T13:52:33;6.03;;;3.30;;
33475;SDS011;19814;48.224;11.422;2023-06-01T13:54:58;5.85;;;3.53;;
33475;SDS011;19814;48.224;11.422;2023-06-01T13:57:24;5.28;;;3.25;;
33475;SDS011;19814;48.224;11.422;2023-06-01T13:59:50;6.18;;;3.03;;
33475;SDS011;19814;48.224;11.422;2023-06-01T14:02:15;6.03;;;3.40;;
33475;SDS011;19814;48.224;11.422;2023-06-01T14:04:41;6.20;;;3.58;;
33475;SDS011;19814;48.224;11.422;2023-06-01T14:07:06;4.88;;;2.97;;
33475;SDS011;19814;48.224;11.422;2023-06-01T14:09:32;5.53;;;3.20;;
33475;SDS011;19814;48.224;11.422;2023-06-01T14:11:57;7.13;;;3.45;;
33475;SDS011;19814;48.224;11.422;2023-06-01T14:14:23;4.90;;;2.97;;
33475;SDS011;19814;48.224;11.422;2023-06-01T14:16:48;6.43;;;3.35;;
33475;SDS011;19814;48.224;11.422;2023-06-01T14:19:14;6.65;;;3.17;;
33475;SDS011;19814;48.224;11.422;2023-06-01T14:21:40;9.70;;;3.40;;
33475;SDS011;19814;48.224;11.422;2023-06-01T14:24:05;5.47;;;3.03;;
33475;SDS011;19814;48.224;11.422;2023-06-01T14:26:31;5.75;;;3.25;;
33475;SDS011;19814;48.224;11.422;2023-06-01T14:28:56;5.63;;;3.03;;
33475;SDS011;19814;48.224;11.422;2023-06-01T14:31:22;4.53;;;2.72;;
33475;SDS011;19814;48.224;11.422;2023-06-01T14:33:48;5.45;;;3.10;;
33475;SDS011;19814;48.224;11.422;2023-06-01T14:36:14;6.05;;;3.05;;
33475;SDS011;19814;48.224;11.422;2023-06-01T14:38:40;4.72;;;2.83;;
33475;SDS011;19814;48.224;11.422;2023-06-01T14:41:06;17.98;;;3.72;;
33475;SDS011;19814;48.224;11.422;2023-06-01T14:43:31;6.05;;;3.03;;
33475;SDS011;19814;48.224;11.422;2023-06-01T14:45:57;6.35;;;3.25;;
33475;SDS011;19814;48.224;11.422;2023-06-01T14:48:23;6.18;;;3.00;;
33475;SDS011;19814;48.224;11.422;2023-06-01T14:50:49;6.40;;;3.00;;
33475;SDS011;19814;48.224;11.422;2023-06-01T14:53:16;6.22;;;3.22;;
33475;SDS011;19814;48.224;11.422;2023-06-01T14:55:42;4.90;;;2.63;;
33475;SDS011;19814;48.224;11.422;2023-06-01T14:58:08;4.28;;;2.88;;
33475;SDS011;19814;48.224;11.422;2023-06-01T15:00:34;6.10;;;3.35;;
33475;SDS011;19814;48.224;11.422;2023-06-01T15:03:00;8.57;;;3.67;;
33475;SDS011;19814;48.224;11.422;2023-06-01T15:05:26;5.65;;;2.88;;
33475;SDS011;19814;48.224;11.422;2023-06-01T15:07:52;4.88;;;2.50;;
33475;SDS011;19814;48.224;11.422;2023-06-01T15:10:18;6.10;;;3.17;;
33475;SDS011;19814;48.224;11.422;2023-06-01T15:12:43;4.30;;;2.83;;
33475;SDS011;19814;48.224;11.422;2023-06-01T15:15:09;5.95;;;3.10;;
33475;SDS011;19814;48.224;11.422;2023-06-01T15:17:35;5.13;;;3.00;;
33475;SDS011;19814;48.224;11.422;2023-06-01T15:20:00;5.70;;;2.42;;